sensor_id;sensor_type;location;lat;lon;timestamp;P1;durP1;ratioP1;P2;durP2;ratioP2
36213;SDS011;37652;50.400;30.628;2022-09-09T00:00:19;10.48;;;4.90;;
36213;SDS011;37652;50.400;30.628;2022-09-09T00:04:28;8.20;;;5.63;;
36213;SDS011;37652;50.400;30.628;2022-09-09T00:06:32;8.85;;;5.43;;
36213;SDS011;37652;50.400;30.628;2022-09-09T00:09:08;9.35;;;4.97;;
36213;SDS011;37652;50.400;30.628;2022-09-09T00:11:12;8.80;;;4.75;;
36213;SDS011;37652;50.400;30.628;2022-09-09T00:13:40;7.80;;;4.68;;
36213;SDS011;37652;50.400;30.628;2022-09-09T00:20:05;7.38;;;4.93;;
36213;SDS011;37652;50.400;30.628;2022-09-09T00:22:20;11.13;;;4.90;;
36213;SDS011;37652;50.400;30.628;2022-09-09T00:24:28;6.47;;;4.82;;
36213;SDS011;37652;50.400;30.628;2022-09-09T00:26:35;5.90;;;4.65;;
36213;SDS011;37652;50.400;30.628;2022-09-09T00:28:40;10.02;;;5.10;;
36213;SDS011;37652;50.400;30.628;2022-09-09T00:31:11;6.93;;;4.60;;
36213;SDS011;37652;50.400;30.628;2022-09-09T00:33:17;5.82;;;4.30;;
36213;SDS011;37652;50.400;30.628;2022-09-09T00:35:22;6.72;;;5.07;;
36213;SDS011;37652;50.400;30.628;2022-09-09T00:37:34;5.32;;;4.22;;
36213;SDS011;37652;50.400;30.628;2022-09-09T00:39:42;6.18;;;4.78;;
36213;SDS011;37652;50.400;30.628;2022-09-09T00:46:32;9.15;;;4.30;;
36213;SDS011;37652;50.400;30.628;2022-09-09T00:49:03;5.95;;;4.45;;
36213;SDS011;37652;50.400;30.628;2022-09-09T00:51:20;8.02;;;5.10;;
36213;SDS011;37652;50.400;30.628;2022-09-09T00:53:55;7.70;;;4.05;;
36213;SDS011;37652;50.400;30.628;2022-09-09T00:56:25;5.45;;;4.07;;
36213;SDS011;37652;50.400;30.628;2022-09-09T00:58:32;6.60;;;4.47;;
36213;SDS011;37652;50.400;30.628;2022-09-09T01:00:43;7.38;;;4.47;;
36213;SDS011;37652;50.400;30.628;2022-09-09T01:04:48;4.97;;;3.83;;
36213;SDS011;37652;50.400;30.628;2022-09-09T01:06:50;9.07;;;4.45;;
36213;SDS011;37652;50.400;30.628;2022-09-09T01:09:05;7.35;;;4.30;;
36213;SDS011;37652;50.400;30.628;2022-09-09T01:11:09;5.37;;;3.93;;
36213;SDS011;37652;50.400;30.628;2022-09-09T01:13:22;5.38;;;4.35;;
36213;SDS011;37652;50.400;30.628;2022-09-09T01:15:30;5.82;;;4.20;;
36213;SDS011;37652;50.400;30.628;2022-09-09T01:17:39;5.88;;;3.88;;
36213;SDS011;37652;50.400;30.628;2022-09-09T01:20:14;7.00;;;4.85;;
36213;SDS011;37652;50.400;30.628;2022-09-09T01:26:44;7.53;;;4.05;;
36213;SDS011;37652;50.400;30.628;2022-09-09T01:28:46;5.68;;;4.00;;
36213;SDS011;37652;50.400;30.628;2022-09-09T01:30:48;5.68;;;4.47;;
36213;SDS011;37652;50.400;30.628;2022-09-09T01:32:51;4.70;;;3.70;;
36213;SDS011;37652;50.400;30.628;2022-09-09T01:34:55;4.53;;;3.60;;
36213;SDS011;37652;50.400;30.628;2022-09-09T01:39:11;4.55;;;3.60;;
36213;SDS011;37652;50.400;30.628;2022-09-09T01:41:12;5.82;;;4.05;;
36213;SDS011;37652;50.400;30.628;2022-09-09T01:43:13;6.03;;;4.82;;
36213;SDS011;37652;50.400;30.628;2022-09-09T01:45:14;7.13;;;4.30;;
36213;SDS011;37652;50.400;30.628;2022-09-09T01:47:15;6.15;;;4.25;;
36213;SDS011;37652;50.400;30.628;2022-09-09T01:49:18;4.70;;;4.20;;
36213;SDS011;37652;50.400;30.628;2022-09-09T01:51:18;7.53;;;4.63;;
36213;SDS011;37652;50.400;30.628;2022-09-09T01:53:20;5.30;;;3.92;;
36213;SDS011;37652;50.400;30.628;2022-09-09T01:55:32;7.22;;;3.88;;
36213;SDS011;37652;50.400;30.628;2022-09-09T01:57:43;7.22;;;4.97;;
36213;SDS011;37652;50.400;30.628;2022-09-09T02:00:07;5.35;;;4.00;;
36213;SDS011;37652;50.400;30.628;2022-09-09T02:04:21;5.95;;;4.53;;
36213;SDS011;37652;50.400;30.628;2022-09-09T02:08:40;5.97;;;4.35;;
36213;SDS011;37652;50.400;30.628;2022-09-09T02:11:27;4.40;;;3.72;;
36213;SDS011;37652;50.400;30.628;2022-09-09T02:13:13;6.20;;;3.97;;
36213;SDS011;37652;50.400;30.628;2022-09-09T02:15:30;5.13;;;4.30;;
36213;SDS011;37652;50.400;30.628;2022-09-09T02:17:39;5.63;;;4.30;;
36213;SDS011;37652;50.400;30.628;2022-09-09T02:19:44;8.10;;;4.80;;
36213;SDS011;37652;50.400;30.628;2022-09-09T02:21:48;8.75;;;4.70;;
36213;SDS011;37652;50.400;30.628;2022-09-09T02:23:50;6.45;;;4.00;;
36213;SDS011;37652;50.400;30.628;2022-09-09T02:25:53;7.00;;;4.55;;
36213;SDS011;37652;50.400;30.628;2022-09-09T02:27:57;8.57;;;4.20;;
36213;SDS011;37652;50.400;30.628;2022-09-09T02:29:59;5.93;;;4.57;;
36213;SDS011;37652;50.400;30.628;2022-09-09T02:32:03;5.60;;;4.30;;
36213;SDS011;37652;50.400;30.628;2022-09-09T02:34:08;6.80;;;4.18;;
36213;SDS011;37652;50.400;30.628;2022-09-09T02:36:11;6.93;;;4.63;;
36213;SDS011;37652;50.400;30.628;2022-09-09T02:38:16;6.60;;;4.30;;
36213;SDS011;37652;50.400;30.628;2022-09-09T02:40:17;8.43;;;5.13;;
36213;SDS011;37652;50.400;30.628;2022-09-09T02:42:18;6.88;;;4.65;;
36213;SDS011;37652;50.400;30.628;2022-09-09T02:44:19;6.15;;;4.25;;
36213;SDS011;37652;50.400;30.628;2022-09-09T02:53:21;5.32;;;4.82;;
36213;SDS011;37652;50.400;30.628;2022-09-09T02:55:32;5.63;;;4.35;;
36213;SDS011;37652;50.400;30.628;2022-09-09T02:57:38;6.10;;;4.25;;
36213;SDS011;37652;50.400;30.628;2022-09-09T02:59:41;5.93;;;4.80;;
36213;SDS011;37652;50.400;30.628;2022-09-09T03:01:44;6.13;;;3.97;;
36213;SDS011;37652;50.400;30.628;2022-09-09T03:03:45;6.85;;;4.72;;
36213;SDS011;37652;50.400;30.628;2022-09-09T03:05:46;5.15;;;4.63;;
36213;SDS011;37652;50.400;30.628;2022-09-09T03:07:47;7.82;;;4.60;;
36213;SDS011;37652;50.400;30.628;2022-09-09T03:09:49;5.68;;;4.50;;
36213;SDS011;37652;50.400;30.628;2022-09-09T03:11:50;7.30;;;4.72;;
36213;SDS011;37652;50.400;30.628;2022-09-09T03:13:51;8.27;;;5.15;;
36213;SDS011;37652;50.400;30.628;2022-09-09T03:17:53;6.63;;;4.43;;
36213;SDS011;37652;50.400;30.628;2022-09-09T03:21:57;5.03;;;4.40;;
36213;SDS011;37652;50.400;30.628;2022-09-09T03:23:59;6.10;;;4.40;;
36213;SDS011;37652;50.400;30.628;2022-09-09T03:26:00;6.05;;;4.35;;
36213;SDS011;37652;50.400;30.628;2022-09-09T03:28:01;9.82;;;4.70;;
36213;SDS011;37652;50.400;30.628;2022-09-09T03:30:01;5.25;;;4.72;;
36213;SDS011;37652;50.400;30.628;2022-09-09T03:32:03;8.43;;;5.30;;
36213;SDS011;37652;50.400;30.628;2022-09-09T03:34:04;7.15;;;4.88;;
36213;SDS011;37652;50.400;30.628;2022-09-09T03:36:05;8.70;;;4.97;;
36213;SDS011;37652;50.400;30.628;2022-09-09T03:38:07;7.75;;;4.95;;
36213;SDS011;37652;50.400;30.628;2022-09-09T03:40:09;6.82;;;5.20;;
36213;SDS011;37652;50.400;30.628;2022-09-09T03:42:13;8.02;;;4.97;;
36213;SDS011;37652;50.400;30.628;2022-09-09T03:44:18;8.70;;;5.10;;
36213;SDS011;37652;50.400;30.628;2022-09-09T03:46:20;8.18;;;4.95;;
36213;SDS011;37652;50.400;30.628;2022-09-09T03:48:22;7.05;;;5.15;;
36213;SDS011;37652;50.400;30.628;2022-09-09T03:50:24;6.50;;;4.95;;
36213;SDS011;37652;50.400;30.628;2022-09-09T03:52:25;5.70;;;4.47;;
36213;SDS011;37652;50.400;30.628;2022-09-09T03:56:27;7.53;;;5.07;;
36213;SDS011;37652;50.400;30.628;2022-09-09T03:58:28;7.40;;;4.82;;
36213;SDS011;37652;50.400;30.628;2022-09-09T04:00:29;8.25;;;4.28;;
36213;SDS011;37652;50.400;30.628;2022-09-09T04:02:30;8.90;;;5.13;;
36213;SDS011;37652;50.400;30.628;2022-09-09T04:04:31;6.95;;;4.90;;
36213;SDS011;37652;50.400;30.628;2022-09-09T04:06:32;7.30;;;4.38;;
36213;SDS011;37652;50.400;30.628;2022-09-09T04:08:32;7.38;;;4.60;;
36213;SDS011;37652;50.400;30.628;2022-09-09T04:10:34;7.88;;;5.28;;
36213;SDS011;37652;50.400;30.628;2022-09-09T04:12:38;7.97;;;4.07;;
36213;SDS011;37652;50.400;30.628;2022-09-09T04:14:39;5.75;;;4.57;;
36213;SDS011;37652;50.400;30.628;2022-09-09T04:16:40;5.60;;;4.40;;
36213;SDS011;37652;50.400;30.628;2022-09-09T04:18:44;5.65;;;4.55;;
36213;SDS011;37652;50.400;30.628;2022-09-09T04:20:46;6.13;;;4.40;;
36213;SDS011;37652;50.400;30.628;2022-09-09T04:22:48;7.68;;;4.53;;
36213;SDS011;37652;50.400;30.628;2022-09-09T04:24:49;7.50;;;4.32;;
36213;SDS011;37652;50.400;30.628;2022-09-09T04:26:50;5.90;;;4.15;;
36213;SDS011;37652;50.400;30.628;2022-09-09T04:28:52;5.82;;;5.18;;
36213;SDS011;37652;50.400;30.628;2022-09-09T04:30:53;7.63;;;4.47;;
36213;SDS011;37652;50.400;30.628;2022-09-09T04:32:54;6.38;;;4.55;;
36213;SDS011;37652;50.400;30.628;2022-09-09T04:34:56;8.25;;;4.82;;
36213;SDS011;37652;50.400;30.628;2022-09-09T04:36:57;6.57;;;4.82;;
36213;SDS011;37652;50.400;30.628;2022-09-09T04:38:59;6.20;;;4.40;;
36213;SDS011;37652;50.400;30.628;2022-09-09T04:41:01;6.40;;;4.40;;
36213;SDS011;37652;50.400;30.628;2022-09-09T04:43:03;7.50;;;4.85;;
36213;SDS011;37652;50.400;30.628;2022-09-09T04:45:05;6.88;;;5.05;;
36213;SDS011;37652;50.400;30.628;2022-09-09T04:47:06;7.18;;;4.78;;
36213;SDS011;37652;50.400;30.628;2022-09-09T04:49:07;10.38;;;5.60;;
36213;SDS011;37652;50.400;30.628;2022-09-09T04:51:09;5.95;;;4.55;;
36213;SDS011;37652;50.400;30.628;2022-09-09T04:53:13;5.63;;;4.97;;
36213;SDS011;37652;50.400;30.628;2022-09-09T04:55:14;5.20;;;4.68;;
36213;SDS011;37652;50.400;30.628;2022-09-09T04:59:16;8.17;;;4.70;;
36213;SDS011;37652;50.400;30.628;2022-09-09T05:01:20;6.07;;;4.38;;
36213;SDS011;37652;50.400;30.628;2022-09-09T05:03:21;8.80;;;5.15;;
36213;SDS011;37652;50.400;30.628;2022-09-09T05:05:22;5.70;;;4.90;;
36213;SDS011;37652;50.400;30.628;2022-09-09T05:07:23;8.77;;;5.50;;
36213;SDS011;37652;50.400;30.628;2022-09-09T05:09:26;8.90;;;5.80;;
36213;SDS011;37652;50.400;30.628;2022-09-09T05:11:28;7.03;;;5.55;;
36213;SDS011;37652;50.400;30.628;2022-09-09T05:13:30;8.13;;;5.95;;
36213;SDS011;37652;50.400;30.628;2022-09-09T05:17:32;6.77;;;5.03;;
36213;SDS011;37652;50.400;30.628;2022-09-09T05:21:34;7.40;;;5.13;;
36213;SDS011;37652;50.400;30.628;2022-09-09T05:23:35;7.72;;;5.60;;
36213;SDS011;37652;50.400;30.628;2022-09-09T05:25:36;10.13;;;5.20;;
36213;SDS011;37652;50.400;30.628;2022-09-09T05:27:37;8.65;;;5.45;;
36213;SDS011;37652;50.400;30.628;2022-09-09T05:29:39;7.65;;;4.43;;
36213;SDS011;37652;50.400;30.628;2022-09-09T05:31:43;6.05;;;4.88;;
36213;SDS011;37652;50.400;30.628;2022-09-09T05:33:44;7.97;;;4.95;;
36213;SDS011;37652;50.400;30.628;2022-09-09T05:35:46;8.48;;;5.35;;
36213;SDS011;37652;50.400;30.628;2022-09-09T05:37:48;6.18;;;4.40;;
36213;SDS011;37652;50.400;30.628;2022-09-09T05:39:49;9.15;;;4.75;;
36213;SDS011;37652;50.400;30.628;2022-09-09T05:41:50;5.93;;;4.50;;
36213;SDS011;37652;50.400;30.628;2022-09-09T05:43:51;5.80;;;4.38;;
36213;SDS011;37652;50.400;30.628;2022-09-09T05:45:59;7.90;;;4.90;;
36213;SDS011;37652;50.400;30.628;2022-09-09T05:48:08;6.15;;;4.13;;
36213;SDS011;37652;50.400;30.628;2022-09-09T05:50:09;7.50;;;4.93;;
36213;SDS011;37652;50.400;30.628;2022-09-09T05:52:10;6.00;;;3.88;;
36213;SDS011;37652;50.400;30.628;2022-09-09T05:54:11;4.35;;;3.95;;
36213;SDS011;37652;50.400;30.628;2022-09-09T05:56:19;4.85;;;4.20;;
36213;SDS011;37652;50.400;30.628;2022-09-09T05:58:25;7.43;;;4.05;;
36213;SDS011;37652;50.400;30.628;2022-09-09T06:00:26;5.88;;;3.92;;
36213;SDS011;37652;50.400;30.628;2022-09-09T06:02:27;6.93;;;4.20;;
36213;SDS011;37652;50.400;30.628;2022-09-09T06:04:28;8.65;;;3.92;;
36213;SDS011;37652;50.400;30.628;2022-09-09T06:06:31;5.38;;;3.08;;
36213;SDS011;37652;50.400;30.628;2022-09-09T06:08:37;4.32;;;3.38;;
36213;SDS011;37652;50.400;30.628;2022-09-09T06:10:38;5.45;;;3.83;;
36213;SDS011;37652;50.400;30.628;2022-09-09T06:12:39;6.15;;;3.20;;
36213;SDS011;37652;50.400;30.628;2022-09-09T06:14:40;4.38;;;2.80;;
36213;SDS011;37652;50.400;30.628;2022-09-09T06:16:41;4.30;;;3.15;;
36213;SDS011;37652;50.400;30.628;2022-09-09T06:18:44;4.97;;;3.53;;
36213;SDS011;37652;50.400;30.628;2022-09-09T06:20:57;6.65;;;3.90;;
36213;SDS011;37652;50.400;30.628;2022-09-09T06:23:06;6.80;;;3.40;;
36213;SDS011;37652;50.400;30.628;2022-09-09T06:25:07;4.45;;;3.60;;
36213;SDS011;37652;50.400;30.628;2022-09-09T06:27:09;8.25;;;3.55;;
36213;SDS011;37652;50.400;30.628;2022-09-09T06:29:10;7.90;;;4.38;;
36213;SDS011;37652;50.400;30.628;2022-09-09T06:31:12;6.68;;;3.75;;
36213;SDS011;37652;50.400;30.628;2022-09-09T06:33:14;4.90;;;3.35;;
36213;SDS011;37652;50.400;30.628;2022-09-09T06:35:15;3.58;;;2.90;;
36213;SDS011;37652;50.400;30.628;2022-09-09T06:37:16;5.22;;;3.60;;
36213;SDS011;37652;50.400;30.628;2022-09-09T06:39:17;7.22;;;3.85;;
36213;SDS011;37652;50.400;30.628;2022-09-09T06:41:18;9.25;;;3.33;;
36213;SDS011;37652;50.400;30.628;2022-09-09T06:43:24;4.07;;;3.17;;
36213;SDS011;37652;50.400;30.628;2022-09-09T06:45:25;5.75;;;3.28;;
36213;SDS011;37652;50.400;30.628;2022-09-09T06:47:27;5.97;;;3.28;;
36213;SDS011;37652;50.400;30.628;2022-09-09T06:49:28;6.53;;;3.95;;
36213;SDS011;37652;50.400;30.628;2022-09-09T06:51:30;4.75;;;3.30;;
36213;SDS011;37652;50.400;30.628;2022-09-09T06:53:34;7.15;;;4.00;;
36213;SDS011;37652;50.400;30.628;2022-09-09T06:55:35;7.88;;;3.95;;
36213;SDS011;37652;50.400;30.628;2022-09-09T06:57:36;4.78;;;3.63;;
36213;SDS011;37652;50.400;30.628;2022-09-09T06:59:37;3.75;;;3.38;;
36213;SDS011;37652;50.400;30.628;2022-09-09T07:01:42;4.80;;;3.33;;
36213;SDS011;37652;50.400;30.628;2022-09-09T07:03:52;3.72;;;3.15;;
36213;SDS011;37652;50.400;30.628;2022-09-09T07:05:55;4.45;;;3.60;;
36213;SDS011;37652;50.400;30.628;2022-09-09T07:07:56;5.55;;;4.07;;
36213;SDS011;37652;50.400;30.628;2022-09-09T07:09:58;5.00;;;3.40;;
36213;SDS011;37652;50.400;30.628;2022-09-09T07:11:59;5.88;;;3.50;;
36213;SDS011;37652;50.400;30.628;2022-09-09T07:14:00;4.63;;;3.05;;
36213;SDS011;37652;50.400;30.628;2022-09-09T07:16:04;4.32;;;2.50;;
36213;SDS011;37652;50.400;30.628;2022-09-09T07:18:06;4.00;;;2.90;;
36213;SDS011;37652;50.400;30.628;2022-09-09T07:20:06;4.70;;;2.75;;
36213;SDS011;37652;50.400;30.628;2022-09-09T07:22:07;7.07;;;2.65;;
36213;SDS011;37652;50.400;30.628;2022-09-09T07:24:09;3.38;;;2.10;;
36213;SDS011;37652;50.400;30.628;2022-09-09T07:26:11;4.00;;;2.50;;
36213;SDS011;37652;50.400;30.628;2022-09-09T07:28:14;2.85;;;2.55;;
36213;SDS011;37652;50.400;30.628;2022-09-09T07:32:15;3.47;;;2.27;;
36213;SDS011;37652;50.400;30.628;2022-09-09T07:34:17;2.55;;;2.05;;
36213;SDS011;37652;50.400;30.628;2022-09-09T07:38:24;3.50;;;1.92;;
36213;SDS011;37652;50.400;30.628;2022-09-09T07:40:25;5.22;;;2.05;;
36213;SDS011;37652;50.400;30.628;2022-09-09T07:42:26;3.10;;;1.98;;
36213;SDS011;37652;50.400;30.628;2022-09-09T07:44:26;3.22;;;1.95;;
36213;SDS011;37652;50.400;30.628;2022-09-09T07:46:28;2.80;;;1.90;;
36213;SDS011;37652;50.400;30.628;2022-09-09T07:48:29;3.28;;;1.77;;
36213;SDS011;37652;50.400;30.628;2022-09-09T07:50:29;2.92;;;1.75;;
36213;SDS011;37652;50.400;30.628;2022-09-09T07:52:30;1.95;;;1.65;;
36213;SDS011;37652;50.400;30.628;2022-09-09T07:54:31;3.75;;;1.65;;
36213;SDS011;37652;50.400;30.628;2022-09-09T07:56:33;3.40;;;1.40;;
36213;SDS011;37652;50.400;30.628;2022-09-09T07:58:33;5.07;;;1.55;;
36213;SDS011;37652;50.400;30.628;2022-09-09T08:00:34;2.20;;;1.38;;
36213;SDS011;37652;50.400;30.628;2022-09-09T08:02:36;3.92;;;1.95;;
36213;SDS011;37652;50.400;30.628;2022-09-09T08:04:37;2.03;;;1.33;;
36213;SDS011;37652;50.400;30.628;2022-09-09T08:06:39;1.40;;;1.30;;
36213;SDS011;37652;50.400;30.628;2022-09-09T08:08:40;1.77;;;1.23;;
36213;SDS011;37652;50.400;30.628;2022-09-09T08:10:43;3.20;;;1.35;;
36213;SDS011;37652;50.400;30.628;2022-09-09T08:12:44;1.42;;;1.27;;
36213;SDS011;37652;50.400;30.628;2022-09-09T08:14:45;2.90;;;1.15;;
36213;SDS011;37652;50.400;30.628;2022-09-09T08:16:46;1.73;;;1.40;;
36213;SDS011;37652;50.400;30.628;2022-09-09T08:18:49;1.83;;;1.42;;
36213;SDS011;37652;50.400;30.628;2022-09-09T08:20:51;1.23;;;1.02;;
36213;SDS011;37652;50.400;30.628;2022-09-09T08:22:52;1.17;;;0.93;;
36213;SDS011;37652;50.400;30.628;2022-09-09T08:24:54;6.47;;;1.52;;
36213;SDS011;37652;50.400;30.628;2022-09-09T08:26:56;10.27;;;1.73;;
36213;SDS011;37652;50.400;30.628;2022-09-09T08:28:57;2.65;;;1.55;;
36213;SDS011;37652;50.400;30.628;2022-09-09T08:31:12;2.25;;;1.38;;
36213;SDS011;37652;50.400;30.628;2022-09-09T08:33:16;1.85;;;1.30;;
36213;SDS011;37652;50.400;30.628;2022-09-09T08:35:17;1.98;;;1.48;;
36213;SDS011;37652;50.400;30.628;2022-09-09T08:37:20;3.70;;;1.70;;
36213;SDS011;37652;50.400;30.628;2022-09-09T08:39:21;3.55;;;2.05;;
36213;SDS011;37652;50.400;30.628;2022-09-09T08:43:27;2.17;;;1.52;;
36213;SDS011;37652;50.400;30.628;2022-09-09T08:45:31;3.08;;;1.20;;
36213;SDS011;37652;50.400;30.628;2022-09-09T08:52:27;1.92;;;1.52;;
36213;SDS011;37652;50.400;30.628;2022-09-09T08:54:31;6.55;;;1.60;;
36213;SDS011;37652;50.400;30.628;2022-09-09T08:56:35;1.98;;;1.60;;
36213;SDS011;37652;50.400;30.628;2022-09-09T08:58:40;4.20;;;1.52;;
36213;SDS011;37652;50.400;30.628;2022-09-09T09:05:28;1.20;;;1.10;;
36213;SDS011;37652;50.400;30.628;2022-09-09T09:07:53;1.92;;;0.98;;
36213;SDS011;37652;50.400;30.628;2022-09-09T09:12:22;2.85;;;1.10;;
36213;SDS011;37652;50.400;30.628;2022-09-09T09:14:24;2.80;;;1.20;;
36213;SDS011;37652;50.400;30.628;2022-09-09T09:18:38;2.72;;;1.52;;
36213;SDS011;37652;50.400;30.628;2022-09-09T09:23:13;1.85;;;1.33;;
36213;SDS011;37652;50.400;30.628;2022-09-09T09:29:36;2.83;;;1.10;;
36213;SDS011;37652;50.400;30.628;2022-09-09T09:31:41;1.90;;;1.20;;
36213;SDS011;37652;50.400;30.628;2022-09-09T09:33:49;2.63;;;1.20;;
36213;SDS011;37652;50.400;30.628;2022-09-09T09:35:52;1.63;;;1.00;;
36213;SDS011;37652;50.400;30.628;2022-09-09T09:37:53;2.05;;;1.40;;
36213;SDS011;37652;50.400;30.628;2022-09-09T09:39:55;4.95;;;0.88;;
36213;SDS011;37652;50.400;30.628;2022-09-09T09:41:56;1.50;;;1.40;;
36213;SDS011;37652;50.400;30.628;2022-09-09T09:44:01;2.72;;;1.40;;
36213;SDS011;37652;50.400;30.628;2022-09-09T09:46:05;3.92;;;1.20;;
36213;SDS011;37652;50.400;30.628;2022-09-09T09:48:19;1.92;;;1.17;;
36213;SDS011;37652;50.400;30.628;2022-09-09T09:50:20;1.10;;;1.00;;
36213;SDS011;37652;50.400;30.628;2022-09-09T09:52:22;1.27;;;1.08;;
36213;SDS011;37652;50.400;30.628;2022-09-09T09:54:28;2.40;;;1.13;;
36213;SDS011;37652;50.400;30.628;2022-09-09T09:56:31;1.23;;;1.13;;
36213;SDS011;37652;50.400;30.628;2022-09-09T09:58:33;2.28;;;1.05;;
36213;SDS011;37652;50.400;30.628;2022-09-09T10:00:51;1.60;;;1.38;;
36213;SDS011;37652;50.400;30.628;2022-09-09T10:02:53;1.75;;;0.95;;
36213;SDS011;37652;50.400;30.628;2022-09-09T10:05:02;2.78;;;1.50;;
36213;SDS011;37652;50.400;30.628;2022-09-09T10:07:18;1.83;;;1.23;;
36213;SDS011;37652;50.400;30.628;2022-09-09T10:11:30;1.80;;;1.08;;
36213;SDS011;37652;50.400;30.628;2022-09-09T10:18:16;1.60;;;1.27;;
36213;SDS011;37652;50.400;30.628;2022-09-09T10:20:41;2.50;;;1.27;;
36213;SDS011;37652;50.400;30.628;2022-09-09T10:22:47;1.63;;;1.40;;
36213;SDS011;37652;50.400;30.628;2022-09-09T10:25:11;2.45;;;1.45;;
36213;SDS011;37652;50.400;30.628;2022-09-09T10:32:06;1.70;;;1.38;;
36213;SDS011;37652;50.400;30.628;2022-09-09T10:34:25;3.30;;;1.52;;
36213;SDS011;37652;50.400;30.628;2022-09-09T10:36:50;5.45;;;1.98;;
36213;SDS011;37652;50.400;30.628;2022-09-09T10:39:04;1.73;;;1.10;;
36213;SDS011;37652;50.400;30.628;2022-09-09T10:41:16;1.88;;;1.20;;
36213;SDS011;37652;50.400;30.628;2022-09-09T10:45:32;2.47;;;1.20;;
36213;SDS011;37652;50.400;30.628;2022-09-09T10:47:44;2.03;;;1.20;;
36213;SDS011;37652;50.400;30.628;2022-09-09T10:50:15;1.00;;;0.90;;
36213;SDS011;37652;50.400;30.628;2022-09-09T10:52:40;4.35;;;1.30;;
36213;SDS011;37652;50.400;30.628;2022-09-09T10:54:55;3.75;;;1.13;;
36213;SDS011;37652;50.400;30.628;2022-09-09T10:57:03;3.17;;;1.10;;
36213;SDS011;37652;50.400;30.628;2022-09-09T10:59:17;2.25;;;1.30;;
36213;SDS011;37652;50.400;30.628;2022-09-09T11:01:28;1.75;;;1.50;;
36213;SDS011;37652;50.400;30.628;2022-09-09T11:03:37;2.50;;;1.70;;
36213;SDS011;37652;50.400;30.628;2022-09-09T11:05:44;1.38;;;1.27;;
36213;SDS011;37652;50.400;30.628;2022-09-09T11:07:52;6.32;;;1.20;;
36213;SDS011;37652;50.400;30.628;2022-09-09T11:10:06;5.22;;;1.17;;
36213;SDS011;37652;50.400;30.628;2022-09-09T11:12:19;1.85;;;0.93;;
36213;SDS011;37652;50.400;30.628;2022-09-09T11:14:29;1.50;;;1.30;;
36213;SDS011;37652;50.400;30.628;2022-09-09T11:16:43;3.80;;;1.60;;
36213;SDS011;37652;50.400;30.628;2022-09-09T11:21:46;2.67;;;1.80;;
36213;SDS011;37652;50.400;30.628;2022-09-09T11:23:51;1.80;;;1.20;;
36213;SDS011;37652;50.400;30.628;2022-09-09T11:25:55;3.72;;;1.52;;
36213;SDS011;37652;50.400;30.628;2022-09-09T11:35:20;3.08;;;1.52;;
36213;SDS011;37652;50.400;30.628;2022-09-09T11:40:24;1.30;;;1.20;;
36213;SDS011;37652;50.400;30.628;2022-09-09T11:42:27;3.05;;;1.90;;
36213;SDS011;37652;50.400;30.628;2022-09-09T11:44:29;2.50;;;1.20;;
36213;SDS011;37652;50.400;30.628;2022-09-09T11:46:32;3.30;;;1.40;;
36213;SDS011;37652;50.400;30.628;2022-09-09T11:48:37;4.43;;;1.83;;
36213;SDS011;37652;50.400;30.628;2022-09-09T11:50:43;2.90;;;1.20;;
36213;SDS011;37652;50.400;30.628;2022-09-09T11:54:48;5.45;;;1.67;;
36213;SDS011;37652;50.400;30.628;2022-09-09T11:56:50;3.15;;;1.80;;
36213;SDS011;37652;50.400;30.628;2022-09-09T11:58:58;1.75;;;1.48;;
36213;SDS011;37652;50.400;30.628;2022-09-09T12:01:15;2.70;;;1.10;;
36213;SDS011;37652;50.400;30.628;2022-09-09T12:03:41;1.95;;;1.20;;
36213;SDS011;37652;50.400;30.628;2022-09-09T12:05:46;4.88;;;1.20;;
36213;SDS011;37652;50.400;30.628;2022-09-09T12:14:21;6.22;;;1.30;;
36213;SDS011;37652;50.400;30.628;2022-09-09T12:16:36;2.38;;;1.67;;
36213;SDS011;37652;50.400;30.628;2022-09-09T12:18:38;6.20;;;1.77;;
36213;SDS011;37652;50.400;30.628;2022-09-09T12:20:39;3.38;;;1.30;;
36213;SDS011;37652;50.400;30.628;2022-09-09T12:27:31;4.65;;;1.58;;
36213;SDS011;37652;50.400;30.628;2022-09-09T12:29:40;2.75;;;1.50;;
36213;SDS011;37652;50.400;30.628;2022-09-09T12:33:49;3.47;;;1.60;;
36213;SDS011;37652;50.400;30.628;2022-09-09T12:35:55;1.77;;;1.33;;
36213;SDS011;37652;50.400;30.628;2022-09-09T12:37:59;4.80;;;1.83;;
36213;SDS011;37652;50.400;30.628;2022-09-09T12:40:03;3.03;;;1.50;;
36213;SDS011;37652;50.400;30.628;2022-09-09T12:42:23;3.27;;;1.30;;
36213;SDS011;37652;50.400;30.628;2022-09-09T12:44:24;5.05;;;1.73;;
36213;SDS011;37652;50.400;30.628;2022-09-09T12:46:31;2.65;;;1.77;;
36213;SDS011;37652;50.400;30.628;2022-09-09T12:48:34;3.97;;;2.13;;
36213;SDS011;37652;50.400;30.628;2022-09-09T12:50:43;5.25;;;3.10;;
36213;SDS011;37652;50.400;30.628;2022-09-09T12:52:50;3.55;;;2.88;;
36213;SDS011;37652;50.400;30.628;2022-09-09T12:54:53;3.45;;;2.80;;
36213;SDS011;37652;50.400;30.628;2022-09-09T12:58:56;3.22;;;1.92;;
36213;SDS011;37652;50.400;30.628;2022-09-09T13:00:58;3.33;;;1.75;;
36213;SDS011;37652;50.400;30.628;2022-09-09T13:03:01;4.93;;;2.22;;
36213;SDS011;37652;50.400;30.628;2022-09-09T13:05:15;5.22;;;2.03;;
36213;SDS011;37652;50.400;30.628;2022-09-09T13:07:20;4.97;;;1.60;;
36213;SDS011;37652;50.400;30.628;2022-09-09T13:09:21;5.03;;;1.38;;
36213;SDS011;37652;50.400;30.628;2022-09-09T13:13:34;6.85;;;1.98;;
36213;SDS011;37652;50.400;30.628;2022-09-09T13:15:37;1.40;;;1.23;;
36213;SDS011;37652;50.400;30.628;2022-09-09T13:19:43;2.17;;;1.63;;
36213;SDS011;37652;50.400;30.628;2022-09-09T13:21:45;5.72;;;1.58;;
36213;SDS011;37652;50.400;30.628;2022-09-09T13:23:50;2.33;;;2.15;;
36213;SDS011;37652;50.400;30.628;2022-09-09T13:25:56;2.03;;;1.40;;
36213;SDS011;37652;50.400;30.628;2022-09-09T13:28:00;1.98;;;1.10;;
36213;SDS011;37652;50.400;30.628;2022-09-09T13:30:19;2.45;;;1.13;;
36213;SDS011;37652;50.400;30.628;2022-09-09T13:32:23;4.50;;;1.60;;
36213;SDS011;37652;50.400;30.628;2022-09-09T13:34:28;1.48;;;1.25;;
36213;SDS011;37652;50.400;30.628;2022-09-09T13:36:31;5.78;;;1.52;;
36213;SDS011;37652;50.400;30.628;2022-09-09T13:38:40;3.38;;;1.75;;
36213;SDS011;37652;50.400;30.628;2022-09-09T13:40:58;3.08;;;1.40;;
36213;SDS011;37652;50.400;30.628;2022-09-09T13:43:13;2.03;;;1.70;;
36213;SDS011;37652;50.400;30.628;2022-09-09T13:45:22;1.77;;;1.10;;
36213;SDS011;37652;50.400;30.628;2022-09-09T13:47:28;1.85;;;1.20;;
36213;SDS011;37652;50.400;30.628;2022-09-09T13:49:34;2.47;;;2.13;;
36213;SDS011;37652;50.400;30.628;2022-09-09T13:51:38;4.30;;;1.75;;
36213;SDS011;37652;50.400;30.628;2022-09-09T13:53:39;1.73;;;1.63;;
36213;SDS011;37652;50.400;30.628;2022-09-09T13:55:40;4.28;;;1.40;;
36213;SDS011;37652;50.400;30.628;2022-09-09T13:57:51;4.40;;;1.40;;
36213;SDS011;37652;50.400;30.628;2022-09-09T13:59:54;2.25;;;1.48;;
36213;SDS011;37652;50.400;30.628;2022-09-09T14:01:55;1.58;;;1.42;;
36213;SDS011;37652;50.400;30.628;2022-09-09T14:03:56;3.00;;;1.30;;
36213;SDS011;37652;50.400;30.628;2022-09-09T14:05:58;3.25;;;1.50;;
36213;SDS011;37652;50.400;30.628;2022-09-09T14:08:02;2.10;;;1.40;;
36213;SDS011;37652;50.400;30.628;2022-09-09T14:10:04;3.42;;;1.80;;
36213;SDS011;37652;50.400;30.628;2022-09-09T14:12:12;4.05;;;1.88;;
36213;SDS011;37652;50.400;30.628;2022-09-09T14:14:15;2.45;;;1.83;;
36213;SDS011;37652;50.400;30.628;2022-09-09T14:16:16;7.88;;;2.35;;
36213;SDS011;37652;50.400;30.628;2022-09-09T14:18:17;3.40;;;1.70;;
36213;SDS011;37652;50.400;30.628;2022-09-09T14:20:19;3.05;;;1.60;;